Time;durP1;ratioP1;P1;durP2;ratioP2;P2;SDS_P1;SDS_P2;PMS_P1;PMS_P2;Temp;Humidity;BMP_temperature;BMP_pressure;BME280_temperature;BME280_humidity;BME280_pressure;Samples;Min_cycle;Max_cycle;Signal;HPM_P1;HPM_P2
2021/01/13 00:00:24;;;;;;;6.50;3.97;;;0.90;91.70;;;;;;4950534;29;20175;-76
2021/01/13 00:02:51;;;;;;;5.50;4.23;;;0.90;91.50;;;;;;4950617;29;20195;-76
2021/01/13 00:05:17;;;;;;;5.90;4.33;;;1.00;91.30;;;;;;4951294;28;20175;-76
2021/01/13 00:07:44;;;;;;;5.93;4.10;;;1.00;91.10;;;;;;4969772;28;20274;-76
2021/01/13 00:10:11;;;;;;;4.53;4.13;;;1.00;91.10;;;;;;4952018;28;20190;-76
2021/01/13 00:12:38;;;;;;;4.57;4.23;;;1.00;91.20;;;;;;4933848;29;20186;-75
2021/01/13 00:15:08;;;;;;;5.27;4.67;;;1.00;91.20;;;;;;4950135;29;20198;-75
2021/01/13 00:17:34;;;;;;;4.30;3.90;;;1.10;91.00;;;;;;4932605;29;20209;-76
2021/01/13 00:20:00;;;;;;;4.87;4.40;;;1.10;91.00;;;;;;4957238;28;20178;-76
2021/01/13 00:22:26;;;;;;;5.63;4.37;;;1.10;91.00;;;;;;4969029;28;20205;-76
2021/01/13 00:24:52;;;;;;;8.97;5.27;;;1.10;91.10;;;;;;4968735;28;20167;-76
2021/01/13 00:27:21;;;;;;;6.70;5.10;;;1.00;91.10;;;;;;4967558;28;20186;-76
2021/01/13 00:29:56;;;;;;;5.07;4.00;;;1.00;91.00;;;;;;4951883;28;20628;-76
2021/01/13 00:32:21;;;;;;;8.17;4.83;;;0.90;91.10;;;;;;4969499;28;20164;-76
2021/01/13 00:34:47;;;;;;;4.67;3.97;;;0.90;91.00;;;;;;4969459;28;20983;-75
2021/01/13 00:37:13;;;;;;;4.90;4.00;;;0.90;91.20;;;;;;4969352;28;20167;-76
2021/01/13 00:39:39;;;;;;;7.37;4.70;;;0.80;91.40;;;;;;4969366;28;20253;-75
2021/01/13 00:42:05;;;;;;;5.87;4.33;;;0.80;91.30;;;;;;4956578;28;20262;-76
2021/01/13 00:44:31;;;;;;;5.47;4.40;;;0.70;91.50;;;;;;4949694;28;20895;-76
2021/01/13 00:46:57;;;;;;;5.10;4.50;;;0.80;91.70;;;;;;4949521;29;20182;-74
2021/01/13 00:49:23;;;;;;;4.70;3.70;;;0.80;91.80;;;;;;4932179;29;20190;-74
2021/01/13 00:51:48;;;;;;;6.03;4.33;;;0.80;91.70;;;;;;4963954;28;20175;-73
2021/01/13 00:54:14;;;;;;;5.03;3.60;;;0.70;91.60;;;;;;4968189;28;20187;-73
2021/01/13 00:56:49;;;;;;;5.73;3.27;;;0.70;91.70;;;;;;4966273;28;20194;-73
2021/01/13 00:59:16;;;;;;;6.80;3.83;;;0.70;91.70;;;;;;4967998;28;20206;-75
2021/01/13 01:01:43;;;;;;;5.03;4.43;;;0.70;91.90;;;;;;4952906;28;20183;-73
2021/01/13 01:04:11;;;;;;;3.67;3.37;;;0.70;91.90;;;;;;4948259;29;20178;-73
2021/01/13 01:06:37;;;;;;;6.23;3.90;;;0.60;91.80;;;;;;4948015;29;20182;-73
2021/01/13 01:09:05;;;;;;;6.03;4.50;;;0.70;92.10;;;;;;4956992;28;20209;-73
2021/01/13 01:11:36;;;;;;;4.70;3.53;;;0.70;92.10;;;;;;4950448;28;20189;-73
2021/01/13 01:14:06;;;;;;;7.43;4.07;;;0.70;92.10;;;;;;4963875;28;20177;-73
2021/01/13 01:16:37;;;;;;;7.37;4.80;;;0.70;92.20;;;;;;4967347;28;20558;-73
2021/01/13 01:19:04;;;;;;;6.67;4.50;;;0.70;92.10;;;;;;4966549;28;20198;-73
2021/01/13 01:21:30;;;;;;;5.43;4.10;;;0.70;92.20;;;;;;4948080;28;20281;-73
2021/01/13 01:23:56;;;;;;;5.40;4.03;;;0.70;92.20;;;;;;4946429;29;20354;-73
2021/01/13 01:26:22;;;;;;;4.40;4.00;;;0.70;92.00;;;;;;4951622;28;20189;-73
2021/01/13 01:28:47;;;;;;;6.07;3.90;;;0.80;91.70;;;;;;4966680;28;20201;-74
2021/01/13 01:31:14;;;;;;;3.83;3.27;;;0.80;91.70;;;;;;4965869;28;20182;-73
2021/01/13 01:33:39;;;;;;;4.33;3.57;;;0.80;91.80;;;;;;4949399;28;20183;-73
2021/01/13 01:36:05;;;;;;;4.63;4.23;;;0.80;91.80;;;;;;4964855;28;20194;-73
2021/01/13 01:38:31;;;;;;;5.23;3.87;;;0.80;91.70;;;;;;4966352;28;20221;-73
2021/01/13 01:41:07;;;;;;;3.83;3.23;;;0.80;91.40;;;;;;4966950;28;20170;-73
2021/01/13 01:43:35;;;;;;;6.80;4.50;;;0.80;91.40;;;;;;4965362;28;20218;-74
2021/01/13 01:46:01;;;;;;;6.27;5.27;;;0.80;91.40;;;;;;4948971;28;20281;-73
2021/01/13 01:48:28;;;;;;;4.63;3.80;;;0.80;91.20;;;;;;4948430;28;20585;-74
2021/01/13 01:50:58;;;;;;;6.13;4.50;;;0.90;91.30;;;;;;4959247;28;20179;-73
2021/01/13 01:53:42;;;;;;;4.57;3.03;;;0.80;91.10;;;;;;4966403;28;20671;-74
2021/01/13 01:56:10;;;;;;;6.13;4.27;;;0.80;91.10;;;;;;4966697;28;20174;-75
2021/01/13 01:58:37;;;;;;;5.70;4.03;;;0.70;91.10;;;;;;4966684;28;20421;-73
2021/01/13 02:01:05;;;;;;;3.63;3.33;;;0.70;91.40;;;;;;4948884;28;20625;-73
2021/01/13 02:03:53;;;;;;;4.27;3.73;;;0.50;91.50;;;;;;4966035;28;20206;-74
2021/01/13 02:06:25;;;;;;;4.43;2.93;;;0.40;91.80;;;;;;4960844;28;20724;-74
2021/01/13 02:08:51;;;;;;;6.57;4.50;;;0.40;92.20;;;;;;4948796;28;20171;-74
2021/01/13 02:11:19;;;;;;;7.13;4.43;;;0.40;92.30;;;;;;4929078;29;20190;-74
2021/01/13 02:13:46;;;;;;;5.10;4.00;;;0.40;92.30;;;;;;4946412;29;20668;-74
2021/01/13 02:16:14;;;;;;;5.47;4.23;;;0.40;92.40;;;;;;4946063;29;20263;-74
2021/01/13 02:18:46;;;;;;;5.23;4.40;;;0.50;92.40;;;;;;4945899;29;20211;-74
2021/01/13 02:21:15;;;;;;;7.70;4.80;;;0.60;92.30;;;;;;4945243;28;20190;-74
2021/01/13 02:24:01;;;;;;;6.63;5.10;;;0.60;92.10;;;;;;4965189;28;20245;-74
2021/01/13 02:27:02;;;;;;;6.80;4.57;;;0.70;92.00;;;;;;4886239;29;20189;-74
2021/01/13 02:29:37;;;;;;;4.67;4.00;;;0.70;92.00;;;;;;4887092;29;20193;-74
2021/01/13 02:32:13;;;;;;;5.53;4.90;;;0.70;91.80;;;;;;4887351;29;20194;-74
2021/01/13 02:34:59;;;;;;;5.37;4.37;;;0.70;91.90;;;;;;4871387;29;20194;-74
2021/01/13 02:37:42;;;;;;;4.60;4.20;;;0.70;91.80;;;;;;4887158;29;20668;-74
2021/01/13 02:40:15;;;;;;;5.17;4.03;;;0.70;91.70;;;;;;4886748;29;20321;-74
2021/01/13 02:43:01;;;;;;;5.03;4.03;;;0.70;91.70;;;;;;4887085;29;20709;-74
2021/01/13 02:45:35;;;;;;;4.20;3.40;;;0.70;91.50;;;;;;4887479;29;20180;-74
2021/01/13 02:48:23;;;;;;;8.97;4.17;;;0.50;91.50;;;;;;4887056;29;20181;-74
2021/01/13 02:50:57;;;;;;;4.33;3.87;;;0.40;91.70;;;;;;4887486;29;20253;-74
2021/01/13 02:53:22;;;;;;;4.47;3.37;;;0.40;91.80;;;;;;4888215;29;20624;-74
2021/01/13 02:55:48;;;;;;;6.10;4.50;;;0.40;91.70;;;;;;4872316;29;20248;-75
2021/01/13 02:58:30;;;;;;;5.57;4.20;;;0.40;91.80;;;;;;4888213;29;20275;-75
2021/01/13 03:00:58;;;;;;;4.33;3.77;;;0.40;92.00;;;;;;4862852;29;20216;-74
2021/01/13 03:03:24;;;;;;;5.67;3.93;;;0.40;91.90;;;;;;4901527;29;20187;-75
2021/01/13 03:05:50;;;;;;;6.70;4.20;;;0.40;91.80;;;;;;4947005;29;20233;-74
2021/01/13 03:08:16;;;;;;;7.50;4.50;;;0.40;91.90;;;;;;4949338;28;20222;-74
2021/01/13 03:13:41;;;;;;;6.30;4.00;;;0.50;91.90;;;;;;4965990;28;20185;-74
2021/01/13 03:16:08;;;;;;;6.23;4.63;;;0.50;91.80;;;;;;4961285;28;20181;-74
2021/01/13 03:18:56;;;;;;;6.80;4.77;;;0.50;91.90;;;;;;4966167;28;20298;-74
2021/01/13 03:21:27;;;;;;;7.63;4.90;;;0.50;92.00;;;;;;4948129;28;20545;-74
2021/01/13 03:23:52;;;;;;;8.03;5.33;;;0.60;92.20;;;;;;4947470;28;20175;-74
2021/01/13 03:26:26;;;;;;;7.20;4.83;;;0.60;92.00;;;;;;4947057;29;20182;-74
2021/01/13 03:28:53;;;;;;;5.43;4.40;;;0.60;91.90;;;;;;4946970;29;20290;-74
2021/01/13 03:31:26;;;;;;;7.97;5.07;;;0.70;91.90;;;;;;4946941;29;20211;-74
2021/01/13 03:34:13;;;;;;;8.93;5.47;;;0.70;91.90;;;;;;4946540;29;20293;-74
2021/01/13 03:37:08;;;;;;;5.47;4.37;;;0.80;91.80;;;;;;4947093;28;21029;-75
2021/01/13 03:39:36;;;;;;;8.83;5.20;;;0.80;91.70;;;;;;4946314;28;20221;-74
2021/01/13 03:42:09;;;;;;;6.80;5.47;;;0.80;91.80;;;;;;4946870;29;20230;-75
2021/01/13 03:44:36;;;;;;;13.17;6.27;;;0.80;91.70;;;;;;4946676;29;20261;-75
2021/01/13 03:47:31;;;;;;;8.27;5.57;;;0.80;91.80;;;;;;4946599;29;20175;-74
2021/01/13 03:50:21;;;;;;;9.17;5.57;;;0.80;91.90;;;;;;4946868;29;20242;-75
2021/01/13 03:53:01;;;;;;;6.93;5.27;;;0.80;91.80;;;;;;4965518;28;20174;-75
2021/01/13 03:55:32;;;;;;;7.20;5.53;;;0.80;91.90;;;;;;4965789;28;20208;-74
2021/01/13 03:57:58;;;;;;;9.40;6.23;;;0.90;91.90;;;;;;4966879;28;20228;-74
2021/01/13 04:00:45;;;;;;;9.57;6.17;;;0.90;91.90;;;;;;4969679;28;20182;-74
2021/01/13 04:03:21;;;;;;;5.70;4.77;;;0.80;92.00;;;;;;4969258;28;20640;-76
2021/01/13 04:06:10;;;;;;;6.53;5.40;;;0.80;92.00;;;;;;4964106;28;20349;-75
2021/01/13 04:08:44;;;;;;;8.87;5.47;;;0.80;92.00;;;;;;4954914;28;20680;-74
2021/01/13 04:11:12;;;;;;;7.33;5.60;;;0.80;92.20;;;;;;4969154;28;20201;-74
2021/01/13 04:13:43;;;;;;;6.03;5.40;;;0.80;92.10;;;;;;4968993;28;20190;-74
2021/01/13 04:16:11;;;;;;;9.40;6.10;;;0.80;92.10;;;;;;4968907;28;20193;-74
2021/01/13 04:18:38;;;;;;;8.77;6.07;;;0.70;92.10;;;;;;4967420;28;20209;-74
2021/01/13 04:21:06;;;;;;;11.87;6.33;;;0.80;92.20;;;;;;4957864;28;20210;-74
2021/01/13 04:23:32;;;;;;;8.90;5.53;;;0.70;92.20;;;;;;4949161;29;20175;-74
2021/01/13 04:25:59;;;;;;;12.40;6.53;;;0.80;92.20;;;;;;4947694;29;20183;-74
2021/01/13 04:28:26;;;;;;;10.53;6.40;;;0.80;92.20;;;;;;4930597;29;20238;-74
2021/01/13 04:30:54;;;;;;;8.40;4.97;;;0.80;92.00;;;;;;4947972;29;20179;-74
2021/01/13 04:33:20;;;;;;;7.37;5.40;;;0.80;92.00;;;;;;4947808;28;20187;-75
2021/01/13 04:35:46;;;;;;;9.20;5.37;;;0.60;92.10;;;;;;4949344;28;20238;-75
2021/01/13 04:38:16;;;;;;;8.50;5.90;;;0.60;92.50;;;;;;4948977;29;20237;-75
2021/01/13 04:40:49;;;;;;;10.80;5.70;;;0.60;92.50;;;;;;4949535;29;20167;-75
2021/01/13 04:43:20;;;;;;;10.37;5.17;;;0.60;92.40;;;;;;4949451;29;20171;-75
2021/01/13 04:45:48;;;;;;;7.27;5.33;;;0.60;92.40;;;;;;4949277;29;20303;-74
2021/01/13 04:48:18;;;;;;;13.30;6.53;;;0.60;92.50;;;;;;4932116;29;20201;-74
2021/01/13 04:50:45;;;;;;;10.43;5.67;;;0.60;92.60;;;;;;4959063;28;20190;-74
2021/01/13 04:53:21;;;;;;;5.70;5.07;;;0.70;92.60;;;;;;4968363;28;20781;-75
2021/01/13 04:55:48;;;;;;;5.27;4.33;;;0.70;92.50;;;;;;4950272;28;20181;-75
2021/01/13 04:58:48;;;;;;;9.63;4.87;;;0.70;92.50;;;;;;4967680;28;20213;-74
2021/01/13 05:01:51;;;;;;;9.10;5.27;;;0.80;92.40;;;;;;4967914;28;20186;-75
2021/01/13 05:04:29;;;;;;;7.03;5.43;;;0.80;92.50;;;;;;4964235;28;20186;-75
2021/01/13 05:07:07;;;;;;;7.13;5.33;;;0.80;92.50;;;;;;4948660;29;20170;-74
2021/01/13 05:09:54;;;;;;;10.17;5.60;;;0.80;92.60;;;;;;4961280;28;20958;-74
2021/01/13 05:12:26;;;;;;;9.57;5.67;;;0.90;92.50;;;;;;4965006;28;20582;-75
2021/01/13 05:14:59;;;;;;;9.30;6.70;;;0.90;92.60;;;;;;4968006;28;20167;-75
2021/01/13 05:17:33;;;;;;;7.37;5.03;;;0.90;92.70;;;;;;4966497;28;20682;-75
2021/01/13 05:20:31;;;;;;;8.97;6.17;;;0.90;92.90;;;;;;4966238;28;20265;-75
2021/01/13 05:22:58;;;;;;;9.27;5.53;;;0.90;92.90;;;;;;4968158;28;20557;-75
2021/01/13 05:25:38;;;;;;;11.57;6.00;;;1.00;92.90;;;;;;4967730;28;20196;-75
2021/01/13 05:28:09;;;;;;;9.97;6.53;;;0.90;92.70;;;;;;4965885;28;20281;-75
2021/01/13 05:30:44;;;;;;;5.97;4.93;;;0.90;92.50;;;;;;4950353;28;20625;-75
2021/01/13 05:33:25;;;;;;;7.83;5.23;;;0.90;92.60;;;;;;4967457;28;20264;-75
2021/01/13 05:36:04;;;;;;;8.60;5.43;;;0.90;92.50;;;;;;4964792;28;20182;-75
2021/01/13 05:39:10;;;;;;;13.00;6.60;;;0.90;92.40;;;;;;4965516;28;20220;-75
2021/01/13 05:41:37;;;;;;;4.07;3.77;;;0.90;92.30;;;;;;4949238;28;20186;-75
2021/01/13 05:44:03;;;;;;;8.87;5.60;;;1.00;92.20;;;;;;4967890;28;20182;-75
2021/01/13 05:46:43;;;;;;;10.43;5.97;;;1.00;92.10;;;;;;4965582;28;20213;-75
2021/01/13 05:49:10;;;;;;;8.57;4.50;;;1.00;91.90;;;;;;4967346;28;20255;-76
2021/01/13 05:51:36;;;;;;;7.37;5.17;;;1.10;91.80;;;;;;4954548;28;20194;-75
2021/01/13 05:54:04;;;;;;;10.53;6.07;;;1.10;91.80;;;;;;4947456;28;20573;-75
2021/01/13 05:56:37;;;;;;;7.10;4.83;;;1.10;91.70;;;;;;4962320;28;20574;-75
2021/01/13 05:59:05;;;;;;;7.00;4.70;;;1.10;91.70;;;;;;4967504;28;20209;-74
2021/01/13 06:01:39;;;;;;;11.40;5.77;;;1.10;91.60;;;;;;4965486;28;20186;-75
2021/01/13 06:04:06;;;;;;;6.30;4.80;;;1.10;91.70;;;;;;4962863;28;20182;-76
2021/01/13 06:06:41;;;;;;;7.13;4.93;;;1.10;91.50;;;;;;4968239;28;20261;-77
2021/01/13 06:09:07;;;;;;;11.60;6.27;;;1.00;91.60;;;;;;4969010;28;20193;-77
2021/01/13 06:11:36;;;;;;;7.23;5.37;;;1.00;91.60;;;;;;4962761;28;20190;-76
2021/01/13 06:14:06;;;;;;;8.43;5.67;;;1.00;91.70;;;;;;4933140;29;20198;-78
2021/01/13 06:16:32;;;;;;;11.00;5.57;;;1.10;91.80;;;;;;4938471;28;20187;-78
2021/01/13 06:18:58;;;;;;;8.23;5.23;;;1.00;91.60;;;;;;4946595;28;20672;-77
2021/01/13 06:21:24;;;;;;;8.03;5.90;;;1.00;91.80;;;;;;4945285;29;20195;-77
2021/01/13 06:23:51;;;;;;;10.20;6.10;;;1.00;91.90;;;;;;4959240;28;20201;-74
2021/01/13 06:26:19;;;;;;;4.97;4.47;;;1.00;91.50;;;;;;4949042;28;20214;-75
2021/01/13 06:29:29;;;;;;;7.33;4.63;;;0.90;91.40;;;;;;4943920;28;20202;-74
2021/01/13 06:31:57;;;;;;;5.03;4.63;;;0.90;91.70;;;;;;4964934;28;20214;-74
2021/01/13 06:34:27;;;;;;;11.10;5.73;;;0.90;91.90;;;;;;4965547;28;20192;-75
2021/01/13 06:37:22;;;;;;;11.40;5.33;;;0.90;92.10;;;;;;4949239;29;20278;-76
2021/01/13 06:39:48;;;;;;;6.57;3.87;;;0.90;91.90;;;;;;4944514;28;20185;-80
2021/01/13 06:42:14;;;;;;;5.30;4.30;;;0.90;91.40;;;;;;4969057;28;20171;-79
2021/01/13 06:44:48;;;;;;;6.90;4.77;;;0.80;91.10;;;;;;4968676;28;20182;-79
2021/01/13 06:47:14;;;;;;;7.83;5.30;;;0.90;91.30;;;;;;4967882;28;20166;-77
2021/01/13 06:49:39;;;;;;;7.30;4.80;;;0.90;91.30;;;;;;4953439;28;20183;-77
2021/01/13 06:52:08;;;;;;;9.37;4.33;;;1.00;91.40;;;;;;4966185;28;20189;-78
2021/01/13 06:54:45;;;;;;;8.57;4.77;;;1.00;91.30;;;;;;4951523;28;20179;-79
2021/01/13 06:57:12;;;;;;;4.93;4.40;;;1.10;91.30;;;;;;4935211;29;20189;-76
2021/01/13 06:59:39;;;;;;;6.90;4.40;;;1.10;91.20;;;;;;4963177;28;20194;-76
2021/01/13 07:02:05;;;;;;;6.83;4.13;;;1.20;91.20;;;;;;4962053;28;20273;-76
2021/01/13 07:04:44;;;;;;;8.07;5.57;;;1.20;91.20;;;;;;4950406;28;20269;-78
2021/01/13 07:07:12;;;;;;;6.37;4.30;;;1.30;90.90;;;;;;4965990;28;20190;-76
2021/01/13 07:09:40;;;;;;;7.40;4.23;;;1.30;90.90;;;;;;4977094;28;20264;-82
2021/01/13 07:12:14;;;;;;;6.80;4.30;;;1.30;90.80;;;;;;4968823;28;20201;-77
2021/01/13 07:14:42;;;;;;;5.33;4.00;;;1.30;89.90;;;;;;4964583;28;20687;-75
2021/01/13 07:17:10;;;;;;;5.63;4.13;;;1.30;89.90;;;;;;4947413;29;20182;-76
2021/01/13 07:19:36;;;;;;;6.53;4.47;;;1.30;90.00;;;;;;4951408;28;20217;-75
2021/01/13 07:22:04;;;;;;;8.63;4.87;;;1.40;90.30;;;;;;4938423;28;20257;-74
2021/01/13 07:24:30;;;;;;;9.17;5.07;;;1.60;90.80;;;;;;4965444;28;20754;-75
2021/01/13 07:26:59;;;;;;;7.27;5.40;;;1.70;90.20;;;;;;4964651;28;20313;-75
2021/01/13 07:29:27;;;;;;;10.17;5.60;;;1.80;88.80;;;;;;4965181;28;20174;-75
2021/01/13 07:31:57;;;;;;;8.67;5.70;;;1.70;88.30;;;;;;4963803;28;20262;-76
2021/01/13 07:34:32;;;;;;;9.77;6.10;;;1.60;88.40;;;;;;4949819;28;20194;-75
2021/01/13 07:37:19;;;;;;;15.43;6.33;;;1.60;88.70;;;;;;4958569;28;20322;-73
2021/01/13 07:39:51;;;;;;;9.17;5.97;;;1.50;88.80;;;;;;4968368;28;20248;-76
2021/01/13 07:42:37;;;;;;;11.37;6.17;;;1.70;89.40;;;;;;4969095;28;20261;-77
2021/01/13 07:45:16;;;;;;;8.80;6.30;;;1.80;89.40;;;;;;4970400;28;20181;-77
2021/01/13 07:48:09;;;;;;;7.17;5.50;;;1.90;89.20;;;;;;4968821;28;20196;-76
2021/01/13 07:50:44;;;;;;;7.83;5.90;;;2.00;89.00;;;;;;4964975;28;20700;-76
2021/01/13 07:53:27;;;;;;;11.50;6.87;;;2.00;88.70;;;;;;4937797;28;21879;-77
2021/01/13 07:56:02;;;;;;;12.87;6.37;;;2.10;88.30;;;;;;4972422;28;20162;-77
2021/01/13 07:58:32;;;;;;;13.87;6.67;;;2.20;88.50;;;;;;4954669;28;20210;-76
2021/01/13 08:01:15;;;;;;;12.23;6.50;;;2.30;88.70;;;;;;4954830;28;20755;-76
2021/01/13 08:04:11;;;;;;;8.30;5.20;;;2.30;88.30;;;;;;4951415;28;20182;-78
2021/01/13 08:06:47;;;;;;;9.37;5.90;;;2.20;87.10;;;;;;4971961;28;20977;-76
2021/01/13 08:09:20;;;;;;;6.80;4.73;;;2.20;87.80;;;;;;4968550;28;20202;-73
2021/01/13 08:12:10;;;;;;;9.30;5.70;;;2.30;88.00;;;;;;4968731;28;20171;-73
2021/01/13 08:14:57;;;;;;;5.30;4.77;;;2.30;87.60;;;;;;4967980;28;20209;-73
2021/01/13 08:17:40;;;;;;;8.00;5.73;;;2.20;87.10;;;;;;4957092;28;20175;-73
2021/01/13 08:20:07;;;;;;;4.80;3.53;;;2.20;87.30;;;;;;4957068;28;20225;-73
2021/01/13 08:22:33;;;;;;;4.40;3.93;;;2.10;87.20;;;;;;4968141;28;20182;-73
2021/01/13 08:25:02;;;;;;;7.57;5.53;;;2.10;87.30;;;;;;4946537;28;20956;-73
2021/01/13 08:27:29;;;;;;;6.03;4.47;;;2.10;87.10;;;;;;4963420;28;20207;-73
2021/01/13 08:29:57;;;;;;;5.80;5.20;;;2.10;87.40;;;;;;4949066;29;20330;-73
2021/01/13 08:32:37;;;;;;;7.47;4.83;;;2.10;87.50;;;;;;4959763;28;20225;-73
2021/01/13 08:35:05;;;;;;;8.23;4.97;;;2.20;87.40;;;;;;4948734;29;20167;-73
2021/01/13 08:37:34;;;;;;;10.53;5.77;;;2.20;87.40;;;;;;4948704;29;20270;-74
2021/01/13 08:40:26;;;;;;;8.60;5.87;;;2.20;87.10;;;;;;4948886;29;20651;-74
2021/01/13 08:43:06;;;;;;;6.83;4.67;;;2.20;87.20;;;;;;4959056;28;20190;-74
2021/01/13 08:45:37;;;;;;;5.70;4.10;;;2.20;87.20;;;;;;4967308;28;20185;-73
2021/01/13 08:48:21;;;;;;;6.90;3.83;;;2.20;86.90;;;;;;4968119;28;20181;-74
2021/01/13 08:51:05;;;;;;;8.20;4.87;;;2.10;86.80;;;;;;4952075;28;20182;-73
2021/01/13 08:53:32;;;;;;;7.70;4.63;;;2.00;87.30;;;;;;4949008;29;20182;-74
2021/01/13 08:55:59;;;;;;;6.80;4.87;;;2.10;87.60;;;;;;4962219;28;20245;-74
2021/01/13 08:58:29;;;;;;;7.87;4.87;;;2.10;87.40;;;;;;4967791;28;20194;-74
2021/01/13 09:01:11;;;;;;;7.17;4.60;;;2.00;87.30;;;;;;4961066;28;20176;-76
2021/01/13 09:03:41;;;;;;;8.00;5.03;;;2.10;87.80;;;;;;4956969;28;20645;-73
2021/01/13 09:06:23;;;;;;;7.90;5.87;;;2.10;87.80;;;;;;4932827;29;21066;-74
2021/01/13 09:09:11;;;;;;;6.67;4.60;;;2.10;87.40;;;;;;4954576;28;20174;-73
2021/01/13 09:11:38;;;;;;;9.07;4.93;;;2.10;87.30;;;;;;4939553;29;20230;-73
2021/01/13 09:14:18;;;;;;;10.97;5.97;;;2.10;87.60;;;;;;4947796;29;20187;-73
2021/01/13 09:16:48;;;;;;;7.17;4.73;;;2.20;87.50;;;;;;4946286;29;20617;-73
2021/01/13 09:19:20;;;;;;;7.90;6.00;;;2.30;87.60;;;;;;4959701;28;20236;-74
2021/01/13 09:21:57;;;;;;;9.30;5.23;;;2.40;87.60;;;;;;4950136;28;20164;-74
2021/01/13 09:24:27;;;;;;;13.33;5.33;;;2.60;87.70;;;;;;4951800;28;20166;-74
2021/01/13 09:26:58;;;;;;;13.10;6.10;;;2.70;87.30;;;;;;4958697;28;20182;-73
2021/01/13 09:29:24;;;;;;;10.57;5.70;;;2.80;86.60;;;;;;4967122;28;20163;-74
2021/01/13 09:32:11;;;;;;;8.17;5.10;;;2.80;85.80;;;;;;4967038;28;20245;-74
2021/01/13 09:34:37;;;;;;;9.60;5.67;;;2.80;86.10;;;;;;4909702;29;20254;-73
2021/01/13 09:37:03;;;;;;;6.60;5.33;;;2.90;86.50;;;;;;4925557;29;20278;-73
2021/01/13 09:39:38;;;;;;;11.57;5.33;;;3.00;86.40;;;;;;4909646;29;20215;-74
2021/01/13 09:42:06;;;;;;;9.83;6.17;;;3.20;86.10;;;;;;4925263;29;20326;-73
2021/01/13 09:44:36;;;;;;;8.30;5.47;;;3.30;85.40;;;;;;4910925;29;20180;-73
2021/01/13 09:47:24;;;;;;;11.13;6.20;;;3.40;84.80;;;;;;4918701;29;20311;-73
2021/01/13 09:49:55;;;;;;;7.23;4.87;;;3.50;84.80;;;;;;4908138;29;20284;-75
2021/01/13 09:52:20;;;;;;;5.10;4.40;;;3.70;84.30;;;;;;4927964;29;21062;-75
2021/01/13 09:54:51;;;;;;;8.90;5.40;;;3.70;83.90;;;;;;4927869;29;20270;-76
2021/01/13 09:57:18;;;;;;;7.83;5.00;;;3.80;84.00;;;;;;4925469;29;20937;-74
2021/01/13 09:59:57;;;;;;;9.07;5.60;;;3.90;83.40;;;;;;4924515;29;20299;-74
2021/01/13 10:02:24;;;;;;;7.93;6.10;;;4.00;83.10;;;;;;4909612;29;20263;-74
2021/01/13 10:04:52;;;;;;;8.67;5.70;;;4.10;83.90;;;;;;4925352;29;20203;-75
2021/01/13 10:07:22;;;;;;;10.33;6.10;;;4.20;83.80;;;;;;4924377;29;20661;-76
2021/01/13 10:09:48;;;;;;;6.23;5.13;;;4.40;83.50;;;;;;4925870;29;20188;-73
2021/01/13 10:12:16;;;;;;;7.33;5.73;;;4.40;82.50;;;;;;4952257;28;20209;-73
2021/01/13 10:14:52;;;;;;;12.50;6.13;;;4.50;83.40;;;;;;4959641;28;20214;-72
2021/01/13 10:17:27;;;;;;;14.40;6.07;;;4.60;83.00;;;;;;4958005;28;20647;-74
2021/01/13 10:19:53;;;;;;;8.20;6.23;;;4.70;82.40;;;;;;4960168;28;20206;-75
2021/01/13 10:22:25;;;;;;;9.03;5.87;;;4.80;81.90;;;;;;4962093;28;20191;-75
2021/01/13 10:24:52;;;;;;;7.60;6.17;;;4.80;81.70;;;;;;4959206;28;20206;-73
2021/01/13 10:27:18;;;;;;;13.50;5.67;;;4.80;82.10;;;;;;4946891;29;20196;-73
2021/01/13 10:29:45;;;;;;;10.77;6.83;;;4.80;82.20;;;;;;4961350;28;20201;-73
2021/01/13 10:32:12;;;;;;;11.53;6.57;;;4.70;81.80;;;;;;4957993;28;20190;-77
2021/01/13 10:34:38;;;;;;;12.23;7.00;;;4.60;81.50;;;;;;4949459;28;20201;-76
2021/01/13 10:37:03;;;;;;;14.33;7.00;;;4.60;81.80;;;;;;4965871;28;20183;-75
2021/01/13 10:39:29;;;;;;;15.27;7.53;;;4.30;80.50;;;;;;4939587;29;20217;-75
2021/01/13 10:42:06;;;;;;;15.27;7.37;;;4.00;81.30;;;;;;4933056;28;20183;-74
2021/01/13 10:44:33;;;;;;;8.87;6.90;;;3.80;82.10;;;;;;4948702;28;20651;-75
2021/01/13 10:47:01;;;;;;;13.80;7.17;;;3.60;82.20;;;;;;4954222;28;20178;-75
2021/01/13 10:49:28;;;;;;;12.13;7.00;;;3.50;82.90;;;;;;4966185;28;20206;-75
2021/01/13 10:51:59;;;;;;;12.73;7.30;;;3.50;83.20;;;;;;4951040;28;20265;-75
2021/01/13 10:54:27;;;;;;;9.47;7.10;;;3.40;83.50;;;;;;4946851;29;20163;-76
2021/01/13 10:56:59;;;;;;;10.87;6.93;;;3.40;83.60;;;;;;4962607;28;20197;-74
2021/01/13 10:59:26;;;;;;;9.90;6.13;;;3.40;83.40;;;;;;4966173;28;20194;-75
2021/01/13 11:02:01;;;;;;;7.83;5.20;;;3.40;83.40;;;;;;4964834;28;20644;-75
2021/01/13 11:04:38;;;;;;;8.37;6.10;;;3.20;83.00;;;;;;4962295;28;20174;-74
2021/01/13 11:07:07;;;;;;;12.47;6.67;;;3.20;83.50;;;;;;4958256;28;20183;-75
2021/01/13 11:09:36;;;;;;;8.90;7.13;;;3.30;83.70;;;;;;4960864;28;20666;-74
2021/01/13 11:12:02;;;;;;;13.57;7.97;;;3.40;83.60;;;;;;4968546;28;20619;-74
2021/01/13 11:14:32;;;;;;;16.20;8.13;;;3.30;83.80;;;;;;4951387;28;20728;-74
2021/01/13 11:17:03;;;;;;;13.50;7.10;;;3.00;84.80;;;;;;4946770;28;20191;-75
2021/01/13 11:19:30;;;;;;;13.73;7.07;;;3.00;85.70;;;;;;4940084;28;20349;-74
2021/01/13 11:21:58;;;;;;;8.90;6.23;;;3.10;86.40;;;;;;4959392;28;20259;-74
2021/01/13 11:24:51;;;;;;;9.73;6.33;;;3.20;86.30;;;;;;4938886;29;20955;-75
2021/01/13 11:27:23;;;;;;;9.37;6.03;;;3.30;86.00;;;;;;4959368;28;20206;-74
2021/01/13 11:29:54;;;;;;;10.00;6.90;;;3.30;86.20;;;;;;4957567;28;20214;-75
2021/01/13 11:32:29;;;;;;;10.70;7.53;;;3.40;86.50;;;;;;4950291;28;20182;-75
2021/01/13 11:34:56;;;;;;;10.30;7.93;;;3.30;86.20;;;;;;4947934;28;20174;-75
2021/01/13 11:37:47;;;;;;;11.30;7.40;;;3.10;86.60;;;;;;4962624;28;20197;-75
2021/01/13 11:40:24;;;;;;;9.67;6.33;;;3.10;87.10;;;;;;4962396;28;20652;-75
2021/01/13 11:43:38;;;;;;;13.93;7.93;;;3.10;87.10;;;;;;4950283;28;20532;-75
2021/01/13 11:46:09;;;;;;;12.13;7.47;;;3.20;87.20;;;;;;4916874;29;20195;-74
2021/01/13 11:49:13;;;;;;;13.17;8.57;;;3.20;86.80;;;;;;4942221;29;20628;-75
2021/01/13 11:51:43;;;;;;;13.43;8.60;;;3.20;86.70;;;;;;4941712;29;20195;-77
2021/01/13 11:54:09;;;;;;;13.87;8.07;;;3.30;86.80;;;;;;4946370;29;21013;-76
2021/01/13 11:56:35;;;;;;;15.50;9.37;;;3.30;86.30;;;;;;4930067;29;20199;-75
2021/01/13 11:59:01;;;;;;;27.20;9.30;;;3.20;86.50;;;;;;4946487;29;20238;-74
2021/01/13 12:01:28;;;;;;;12.90;8.67;;;3.30;86.40;;;;;;4946292;29;20187;-74
2021/01/13 12:04:04;;;;;;;14.47;8.80;;;3.20;86.50;;;;;;4946127;29;21015;-74
2021/01/13 12:06:30;;;;;;;14.37;9.10;;;3.20;86.50;;;;;;4946601;29;20557;-73
2021/01/13 12:08:56;;;;;;;17.17;9.30;;;3.10;86.10;;;;;;4930008;29;20207;-73
2021/01/13 12:11:22;;;;;;;17.07;8.87;;;3.10;86.40;;;;;;4946448;29;21314;-73
2021/01/13 12:13:48;;;;;;;14.17;8.63;;;3.10;86.40;;;;;;4946093;29;20191;-74
2021/01/13 12:16:19;;;;;;;10.27;7.07;;;3.20;86.30;;;;;;4945212;29;20199;-74
2021/01/13 12:18:50;;;;;;;13.53;7.67;;;3.20;86.20;;;;;;4945939;28;20302;-75
2021/01/13 12:21:16;;;;;;;13.53;7.10;;;3.10;86.00;;;;;;4945369;29;20219;-74
2021/01/13 12:23:47;;;;;;;12.03;7.70;;;2.90;86.20;;;;;;4967934;28;20207;-74
2021/01/13 12:26:19;;;;;;;11.70;7.60;;;2.80;86.40;;;;;;4950451;28;20189;-74
2021/01/13 12:28:48;;;;;;;14.60;8.20;;;2.70;86.80;;;;;;4931878;29;20207;-74
2021/01/13 12:31:18;;;;;;;16.30;9.47;;;2.70;87.20;;;;;;4966126;28;20194;-74
2021/01/13 12:33:56;;;;;;;16.70;9.30;;;2.60;87.30;;;;;;4966401;28;20198;-74
2021/01/13 12:36:39;;;;;;;11.27;8.50;;;2.60;87.50;;;;;;4968715;28;20201;-74
2021/01/13 12:39:06;;;;;;;15.73;8.20;;;2.60;87.80;;;;;;4967423;28;20281;-74
2021/01/13 12:41:34;;;;;;;14.17;7.37;;;2.60;87.50;;;;;;4967097;28;20205;-74
2021/01/13 12:44:06;;;;;;;10.97;7.10;;;2.70;87.60;;;;;;4963529;28;20186;-75
2021/01/13 12:46:37;;;;;;;12.67;7.43;;;2.70;87.50;;;;;;4966334;28;20190;-76
2021/01/13 12:49:04;;;;;;;14.27;8.13;;;2.80;87.40;;;;;;4951949;28;20186;-77
2021/01/13 12:51:30;;;;;;;18.23;9.30;;;3.00;87.40;;;;;;4968337;28;20630;-77
2021/01/13 12:53:57;;;;;;;11.93;8.13;;;3.10;87.20;;;;;;4952179;28;20186;-77
2021/01/13 12:56:25;;;;;;;11.43;7.70;;;3.20;86.70;;;;;;4951437;28;20821;-77
2021/01/13 12:58:51;;;;;;;10.87;8.00;;;3.30;86.20;;;;;;4952319;28;20198;-77
2021/01/13 13:01:17;;;;;;;12.83;9.00;;;3.40;86.20;;;;;;4969372;28;20175;-78
2021/01/13 13:03:44;;;;;;;22.80;9.90;;;3.50;86.00;;;;;;4952153;28;20186;-78
2021/01/13 13:06:10;;;;;;;18.27;8.73;;;3.50;85.70;;;;;;4947175;28;20188;-76
2021/01/13 13:08:36;;;;;;;12.50;7.93;;;3.60;85.30;;;;;;4969079;28;20269;-77
2021/01/13 13:11:09;;;;;;;14.80;9.30;;;3.50;84.80;;;;;;4952468;28;20222;-77
2021/01/13 13:13:34;;;;;;;17.23;9.50;;;3.50;85.20;;;;;;4952115;28;20178;-78
2021/01/13 13:16:01;;;;;;;18.77;9.23;;;3.50;85.50;;;;;;4951892;28;20237;-77
2021/01/13 13:18:26;;;;;;;13.70;8.07;;;3.50;85.50;;;;;;4946395;28;20212;-78
2021/01/13 13:20:52;;;;;;;16.03;8.63;;;3.40;84.80;;;;;;4969480;28;20655;-77